Time;durP1;ratioP1;P1;durP2;ratioP2;P2;SDS_P1;SDS_P2;PMS_P1;PMS_P2;Temp;Humidity;BMP_temperature;BMP_pressure;BME280_temperature;BME280_humidity;BME280_pressure;Samples;Min_cycle;Max_cycle;Signal;HPM_P1;HPM_P2
2022/01/08 00:00:51;;;;;;;2.40;2.15;;;;;;;-5.89;68.75;99047.09;4821370;29;20463;-71
2022/01/08 00:03:21;;;;;;;2.95;2.28;;;;;;;-5.82;68.77;99055.59;4806476;29;20236;-73
2022/01/08 00:05:48;;;;;;;4.05;2.38;;;;;;;-5.85;68.70;99056.50;4821178;29;20049;-73
2022/01/08 00:08:14;;;;;;;2.47;1.73;;;;;;;-5.96;66.45;99080.91;4806237;29;20038;-73
2022/01/08 00:10:40;;;;;;;1.73;1.48;;;;;;;-5.95;67.76;99075.72;4791434;29;20042;-75
2022/01/08 00:13:06;;;;;;;2.35;1.95;;;;;;;-5.90;67.87;99083.44;4806674;29;20452;-74
2022/01/08 00:15:32;;;;;;;2.58;1.88;;;;;;;-5.89;66.92;99079.97;4820898;29;20045;-74
2022/01/08 00:17:59;;;;;;;6.30;2.40;;;;;;;-5.91;66.33;99068.75;4805535;29;20454;-75
2022/01/08 00:20:24;;;;;;;3.65;1.65;;;;;;;-5.86;66.63;99080.72;4806076;29;20049;-71
2022/01/08 00:22:54;;;;;;;2.50;1.42;;;;;;;-5.82;66.94;99089.34;4807081;29;20050;-72
2022/01/08 00:25:18;;;;;;;2.85;1.60;;;;;;;-5.70;68.33;99076.16;4805042;29;20153;-73
2022/01/08 00:27:43;;;;;;;1.77;1.30;;;;;;;-5.64;69.02;99091.66;4807272;29;20137;-72
2022/01/08 00:30:08;;;;;;;4.00;2.05;;;;;;;-5.58;69.05;99090.72;4820839;29;20046;-72
2022/01/08 00:32:33;;;;;;;3.20;1.92;;;;;;;-5.73;64.87;99102.16;4822204;29;20056;-72
2022/01/08 00:34:58;;;;;;;3.05;2.15;;;;;;;-5.74;63.21;99097.84;4806505;29;20045;-75
2022/01/08 00:37:23;;;;;;;2.40;1.65;;;;;;;-5.65;65.82;99105.53;4791127;29;20038;-76
2022/01/08 00:39:48;;;;;;;4.35;1.95;;;;;;;-5.69;63.75;99110.78;4790268;29;20062;-72
2022/01/08 00:42:13;;;;;;;1.75;1.30;;;;;;;-5.78;64.33;99109.19;4789843;29;20041;-73
2022/01/08 00:44:38;;;;;;;3.75;2.00;;;;;;;-5.71;64.45;99118.59;4821084;29;20931;-72
2022/01/08 00:47:03;;;;;;;1.50;1.30;;;;;;;-5.71;63.04;99110.81;4805593;29;20409;-73
2022/01/08 00:49:27;;;;;;;1.90;1.52;;;;;;;-5.68;63.09;99115.97;4806254;29;20042;-76
2022/01/08 00:51:52;;;;;;;1.85;1.40;;;;;;;-5.57;64.87;99124.44;4820495;29;20054;-81
2022/01/08 00:54:17;;;;;;;1.33;1.23;;;;;;;-5.58;63.45;99124.47;4789270;29;20090;-71
2022/01/08 00:56:42;;;;;;;3.72;1.75;;;;;;;-5.57;63.36;99124.44;4804280;29;20118;-73
2022/01/08 00:59:06;;;;;;;2.95;2.03;;;;;;;-5.54;64.05;99124.41;4820245;29;20449;-72
2022/01/08 01:01:31;;;;;;;2.75;1.90;;;;;;;-5.66;61.61;99127.19;4806583;29;20417;-72
2022/01/08 01:03:56;;;;;;;4.78;1.98;;;;;;;-5.64;63.14;99129.72;4806320;29;20054;-73
2022/01/08 01:06:21;;;;;;;3.30;1.83;;;;;;;-5.64;62.59;99135.78;4806131;29;20061;-72
2022/01/08 01:08:46;;;;;;;4.05;2.53;;;;;;;-5.51;64.02;99139.06;4805315;29;20053;-72
2022/01/08 01:11:11;;;;;;;2.50;1.63;;;;;;;-5.52;62.64;99142.53;4807132;29;20536;-75
2022/01/08 01:13:35;;;;;;;3.20;1.92;;;;;;;-5.57;61.39;99145.22;4806511;29;20042;-73
2022/01/08 01:16:02;;;;;;;4.15;2.20;;;;;;;-5.58;61.47;99158.22;4805892;29;20042;-66
2022/01/08 01:18:30;;;;;;;3.05;1.70;;;;;;;-5.49;63.72;99158.94;4819205;29;20038;-73
2022/01/08 01:20:54;;;;;;;2.58;1.42;;;;;;;-5.53;62.34;99165.03;4817965;29;20124;-71
2022/01/08 01:23:27;;;;;;;1.70;1.50;;;;;;;-5.47;63.82;99171.91;4819879;29;20152;-74
2022/01/08 01:25:57;;;;;;;3.92;1.65;;;;;;;-5.50;61.79;99172.78;4835454;29;20054;-74
2022/01/08 01:42:19;;;;;;;2.17;1.70;;;;;;;-5.38;62.18;99207.25;4819297;29;20046;-72
2022/01/08 01:47:33;;;;;;;3.67;1.98;;;;;;;-5.46;62.06;99204.78;4818927;29;20034;-72
2022/01/08 01:49:58;;;;;;;0.93;0.93;;;;;;;-5.40;63.14;99203.81;4803232;29;20141;-75
2022/01/08 01:52:26;;;;;;;2.15;1.80;;;;;;;-5.55;63.14;99204.94;4789017;29;20068;-72
2022/01/08 01:54:51;;;;;;;2.40;1.75;;;;;;;-5.54;63.47;99212.69;4788296;29;20136;-71
2022/01/08 01:57:17;;;;;;;1.55;1.27;;;;;;;-5.57;63.58;99220.53;4803405;29;20137;-73
2022/01/08 01:59:42;;;;;;;1.23;1.13;;;;;;;-5.54;63.68;99230.00;4788141;29;20110;-73
2022/01/08 02:02:07;;;;;;;2.03;1.80;;;;;;;-5.63;62.84;99218.00;4803945;29;20050;-74
2022/01/08 02:04:32;;;;;;;3.13;1.73;;;;;;;-5.58;62.94;99229.19;4819149;29;20129;-71
2022/01/08 02:07:04;;;;;;;1.23;1.10;;;;;;;-5.50;64.96;99242.91;4807781;29;20417;-71
2022/01/08 02:09:28;;;;;;;1.58;1.45;;;;;;;-5.47;65.38;99239.44;4823516;29;20052;-72
2022/01/08 02:11:58;;;;;;;3.72;1.48;;;;;;;-5.51;64.03;99248.13;4823593;29;20053;-71
2022/01/08 02:14:24;;;;;;;3.20;1.75;;;;;;;-5.48;64.97;99237.72;4807374;29;20045;-73
2022/01/08 02:16:49;;;;;;;1.35;1.25;;;;;;;-5.55;63.92;99251.66;4807450;29;20053;-73
2022/01/08 02:19:13;;;;;;;3.67;1.83;;;;;;;-5.69;63.59;99261.38;4823748;29;20068;-72
2022/01/08 02:21:38;;;;;;;2.40;1.98;;;;;;;-5.71;64.13;99266.56;4824187;29;20110;-73
2022/01/08 02:24:03;;;;;;;3.70;1.70;;;;;;;-5.66;64.99;99269.13;4824396;29;20061;-73
2022/01/08 02:26:29;;;;;;;2.70;1.85;;;;;;;-5.62;65.57;99274.25;4823415;29;20185;-74
2022/01/08 02:28:53;;;;;;;2.33;1.27;;;;;;;-5.58;65.29;99282.84;4807240;29;20049;-76
2022/01/08 02:31:23;;;;;;;2.88;1.95;;;;;;;-5.50;65.57;99283.59;4824658;29;20072;-75
2022/01/08 02:33:48;;;;;;;3.00;1.42;;;;;;;-5.46;65.72;99281.84;4825020;29;20053;-72
2022/01/08 02:36:13;;;;;;;2.55;1.70;;;;;;;-5.49;65.16;99293.13;4823434;29;20046;-74
2022/01/08 02:38:38;;;;;;;1.95;1.48;;;;;;;-5.42;66.01;99291.31;4842983;29;20110;-74
2022/01/08 02:41:06;;;;;;;2.35;1.63;;;;;;;-5.46;65.23;99287.91;4841629;29;20048;-77
2022/01/08 02:43:38;;;;;;;2.95;1.85;;;;;;;-5.55;65.15;99288.88;4828447;29;20420;-74
2022/01/08 02:46:03;;;;;;;1.75;1.30;;;;;;;-5.46;65.61;99298.28;4827532;29;20449;-75
2022/01/08 02:48:28;;;;;;;4.53;1.63;;;;;;;-5.54;64.58;99295.78;4825967;29;20205;-75
2022/01/08 02:50:53;;;;;;;2.53;1.80;;;;;;;-5.48;66.31;99297.44;4827161;29;20107;-73
2022/01/08 02:53:17;;;;;;;6.85;1.98;;;;;;;-5.41;65.95;99304.25;4810086;29;20132;-73
2022/01/08 02:55:42;;;;;;;1.88;1.70;;;;;;;-5.39;66.32;99309.44;4809695;29;20044;-72
2022/01/08 02:58:06;;;;;;;3.05;1.73;;;;;;;-5.36;66.53;99314.59;4826797;29;20428;-70
2022/01/08 03:00:31;;;;;;;1.50;1.40;;;;;;;-5.38;65.63;99321.56;4826593;29;20132;-63
2022/01/08 03:02:56;;;;;;;3.85;2.25;;;;;;;-5.43;66.28;99326.81;4826952;29;20136;-66
2022/01/08 03:05:21;;;;;;;3.85;2.00;;;;;;;-5.42;65.56;99335.47;4840734;29;20125;-65
2022/01/08 03:07:47;;;;;;;1.83;1.40;;;;;;;-5.36;67.42;99341.44;4826663;29;20148;-64
2022/01/08 03:10:14;;;;;;;2.63;1.83;;;;;;;-5.33;67.34;99348.34;4840792;29;20110;-65
2022/01/08 03:12:41;;;;;;;2.22;1.80;;;;;;;-5.30;67.56;99350.88;4825339;29;20064;-66
2022/01/08 03:15:10;;;;;;;2.80;1.67;;;;;;;-5.31;67.29;99344.88;4826748;29;20496;-66
2022/01/08 03:17:35;;;;;;;1.65;1.48;;;;;;;-5.27;67.36;99359.50;4827823;29;20115;-72
2022/01/08 03:20:04;;;;;;;4.30;1.92;;;;;;;-5.34;66.71;99363.06;4826616;29;20133;-72
2022/01/08 03:22:32;;;;;;;3.00;2.08;;;;;;;-5.29;67.04;99353.47;4810390;29;20104;-69
2022/01/08 03:24:57;;;;;;;1.73;1.60;;;;;;;-5.28;67.31;99362.13;4808161;29;20053;-73
2022/01/08 03:27:25;;;;;;;2.40;1.73;;;;;;;-5.23;68.08;99366.41;4827431;29;20052;-71
2022/01/08 03:29:49;;;;;;;3.58;1.88;;;;;;;-5.34;66.88;99360.47;4810137;29;20096;-70
2022/01/08 03:32:14;;;;;;;4.70;2.42;;;;;;;-5.39;66.81;99361.41;4826189;29;20049;-69
2022/01/08 03:34:39;;;;;;;7.93;3.40;;;;;;;-5.37;67.02;99367.44;4840459;29;20136;-65
2022/01/08 03:37:04;;;;;;;3.95;2.38;;;;;;;-5.33;67.41;99371.72;4824978;29;20109;-66
2022/01/08 03:39:29;;;;;;;3.20;2.38;;;;;;;-5.32;67.67;99369.13;4826223;29;20053;-67
2022/01/08 03:41:56;;;;;;;1.80;1.60;;;;;;;-5.26;68.56;99374.22;4826275;29;20049;-67
2022/01/08 03:44:20;;;;;;;2.38;1.60;;;;;;;-5.21;68.18;99374.19;4826455;29;20467;-65
2022/01/08 03:46:46;;;;;;;2.97;2.42;;;;;;;-5.28;68.18;99375.13;4824976;29;20417;-63
2022/01/08 03:49:22;;;;;;;1.95;1.55;;;;;;;-5.19;69.98;99382.81;4840654;29;20056;-68
2022/01/08 03:51:46;;;;;;;4.60;2.03;;;;;;;-5.30;68.76;99382.94;4826330;29;20390;-69
2022/01/08 03:54:13;;;;;;;2.90;2.45;;;;;;;-5.34;68.56;99385.59;4826177;29;20413;-67
2022/01/08 03:56:37;;;;;;;5.28;2.28;;;;;;;-5.33;68.57;99392.50;4826114;29;20105;-68
2022/01/08 03:59:02;;;;;;;5.05;2.75;;;;;;;-5.38;68.04;99392.56;4840504;29;20049;-69
2022/01/08 04:01:27;;;;;;;3.25;1.48;;;;;;;-5.25;70.18;99395.88;4826137;29;20148;-68
2022/01/08 04:03:51;;;;;;;2.25;1.90;;;;;;;-5.33;68.56;99392.50;4826140;29;20394;-67
2022/01/08 04:06:16;;;;;;;1.73;1.30;;;;;;;-5.34;69.22;99391.66;4840270;29;20076;-67
2022/01/08 04:08:41;;;;;;;3.17;2.53;;;;;;;-5.30;69.10;99401.09;4826247;29;20144;-65
2022/01/08 04:11:06;;;;;;;2.13;1.58;;;;;;;-5.32;69.17;99399.44;4839473;29;20049;-67
2022/01/08 04:13:34;;;;;;;1.45;0.90;;;;;;;-5.34;68.90;99396.00;4808912;29;20177;-68
2022/01/08 04:16:01;;;;;;;2.83;1.85;;;;;;;-5.40;68.01;99406.44;4808891;29;20145;-67
2022/01/08 04:18:26;;;;;;;1.45;1.25;;;;;;;-5.45;67.08;99409.09;4825465;29;20049;-67
2022/01/08 04:23:21;;;;;;;3.33;1.83;;;;;;;-5.36;67.77;99408.13;4824974;29;20070;-67
2022/01/08 04:25:46;;;;;;;2.78;1.00;;;;;;;-5.40;67.15;99406.44;4825201;29;20405;-69
2022/01/08 04:28:11;;;;;;;2.50;1.65;;;;;;;-5.35;67.85;99408.13;4825118;29;20514;-67
2022/01/08 04:30:36;;;;;;;1.55;1.05;;;;;;;-5.38;67.05;99420.25;4839109;29;20041;-68
2022/01/08 04:33:01;;;;;;;2.40;1.40;;;;;;;-5.33;67.54;99418.50;4825024;29;20059;-69
2022/01/08 04:35:26;;;;;;;1.52;1.05;;;;;;;-5.32;67.21;99418.47;4825132;29;20060;-68
2022/01/08 04:37:50;;;;;;;1.27;1.17;;;;;;;-5.34;67.57;99420.22;4825300;29;20095;-69
2022/01/08 04:40:15;;;;;;;1.40;1.08;;;;;;;-5.31;68.13;99425.41;4793406;29;20404;-67
2022/01/08 04:42:40;;;;;;;1.50;1.40;;;;;;;-5.27;67.75;99428.81;4808548;29;20046;-67
2022/01/08 04:45:05;;;;;;;2.58;1.55;;;;;;;-5.22;68.57;99427.88;4825461;29;20047;-69
2022/01/08 04:47:30;;;;;;;1.83;1.48;;;;;;;-5.34;67.37;99433.22;4824980;29;20452;-66
2022/01/08 04:49:54;;;;;;;4.13;1.60;;;;;;;-5.25;67.81;99434.84;4808246;29;20500;-66
2022/01/08 11:23:35;;;;;;;6.90;3.00;;;;;;;-3.42;66.33;99813.44;5585664;23;20430;-67
2022/01/08 11:26:00;;;;;;;4.10;3.17;;;;;;;-3.34;66.23;99811.59;4865305;29;20047;-66
2022/01/08 11:28:34;;;;;;;6.72;3.05;;;;;;;-3.18;66.56;99825.31;4897862;29;20056;-65
2022/01/08 11:31:01;;;;;;;7.53;3.33;;;;;;;-3.14;66.36;99833.06;4882837;29;20099;-67
2022/01/08 11:33:35;;;;;;;6.28;3.20;;;;;;;-3.10;67.70;99832.13;4882318;29;20517;-66
2022/01/08 11:36:00;;;;;;;5.30;3.25;;;;;;;-3.11;66.93;99842.59;4865449;29;20402;-66
2022/01/08 11:38:27;;;;;;;5.72;3.03;;;;;;;-3.14;67.03;99842.63;4882251;29;20372;-67
2022/01/08 11:40:56;;;;;;;4.55;3.05;;;;;;;-3.18;67.85;99851.38;4883261;29;20585;-67
2022/01/08 11:43:26;;;;;;;3.80;2.55;;;;;;;-3.16;68.43;99852.22;4849787;29;20054;-66
2022/01/08 11:46:03;;;;;;;7.45;4.38;;;;;;;-3.34;66.49;99854.16;4865320;29;20127;-64
2022/01/08 11:48:42;;;;;;;3.97;3.22;;;;;;;-3.22;67.78;99857.50;4865985;29;20441;-66
2022/01/08 11:51:07;;;;;;;6.65;3.95;;;;;;;-3.25;67.99;99861.00;4882434;29;20612;-65
2022/01/08 11:53:53;;;;;;;5.80;3.95;;;;;;;-3.27;67.82;99854.13;4896748;29;20044;-66
2022/01/08 11:56:24;;;;;;;7.60;4.00;;;;;;;-3.27;69.35;99848.91;4881879;29;20120;-64
2022/01/08 11:59:05;;;;;;;4.65;3.60;;;;;;;-3.55;69.12;99849.22;4862937;29;20052;-63
2022/01/08 12:01:30;;;;;;;7.13;4.05;;;;;;;-3.67;67.99;99852.81;4849387;29;20048;-67
2022/01/08 12:03:55;;;;;;;5.32;3.83;;;;;;;-3.66;70.03;99854.53;4818488;29;20493;-67
2022/01/08 12:06:29;;;;;;;8.52;5.28;;;;;;;-3.68;70.34;99864.13;4882912;29;20087;-66
2022/01/08 12:11:54;;;;;;;9.40;4.32;;;;;;;-3.80;69.65;99856.41;4863794;29;20048;-71
2022/01/08 12:14:21;;;;;;;6.40;4.35;;;;;;;-3.70;71.05;99863.25;4865393;29;20553;-68
2022/01/08 12:16:51;;;;;;;10.32;4.97;;;;;;;-3.88;70.15;99860.00;4881290;29;20047;-68
2022/01/08 12:19:30;;;;;;;8.32;4.70;;;;;;;-3.84;70.95;99862.56;4881649;29;20048;-68
2022/01/08 12:21:55;;;;;;;13.40;5.85;;;;;;;-3.92;70.54;99872.16;4883909;29;20494;-68
2022/01/08 12:24:20;;;;;;;9.73;6.05;;;;;;;-3.84;71.16;99869.50;4849428;29;20098;-67
2022/01/08 12:26:46;;;;;;;7.95;4.82;;;;;;;-3.78;72.82;99865.09;4882046;29;20059;-66
2022/01/08 12:29:10;;;;;;;8.30;5.18;;;;;;;-3.87;72.01;99878.22;4883737;29;20054;-66
2022/01/08 12:31:47;;;;;;;9.20;5.95;;;;;;;-4.04;70.49;99880.97;4866302;29;20048;-70
2022/01/08 12:34:29;;;;;;;7.53;4.88;;;;;;;-4.03;71.85;99880.09;4866107;29;20079;-66
2022/01/08 12:37:08;;;;;;;7.50;4.90;;;;;;;-4.13;71.44;99873.22;4876025;29;20051;-65
2022/01/08 12:39:47;;;;;;;7.43;5.10;;;;;;;-3.96;73.19;99867.88;4880892;29;20081;-67
2022/01/08 12:42:24;;;;;;;9.75;4.80;;;;;;;-4.07;71.79;99874.94;4875957;29;20099;-66
2022/01/08 12:45:12;;;;;;;14.10;7.35;;;;;;;-4.24;71.95;99879.41;4885255;29;20047;-69
2022/01/08 12:47:55;;;;;;;10.90;5.70;;;;;;;-4.01;74.42;99872.25;4883788;29;20044;-68
2022/01/08 12:50:25;;;;;;;9.50;4.72;;;;;;;-4.08;73.18;99878.41;4865628;29;20391;-66
2022/01/08 12:53:30;;;;;;;6.38;4.00;;;;;;;-3.95;73.83;99882.59;4864388;29;20139;-68
2022/01/08 12:55:57;;;;;;;13.65;7.53;;;;;;;-4.18;72.45;99879.38;4823302;29;20111;-68
2022/01/08 12:58:30;;;;;;;8.77;5.28;;;;;;;-4.12;73.15;99885.38;4808274;29;20060;-66
2022/01/08 13:01:11;;;;;;;14.10;6.40;;;;;;;-4.11;73.99;99878.44;4822772;29;20057;-66
2022/01/08 13:03:38;;;;;;;10.00;6.30;;;;;;;-4.27;73.44;99869.00;4807886;29;20053;-67
2022/01/08 13:06:12;;;;;;;11.23;6.82;;;;;;;-4.17;74.09;99850.69;4822828;29;20207;-68
2022/01/08 13:08:37;;;;;;;10.65;5.80;;;;;;;-4.09;75.57;99838.50;4822832;29;20073;-67
2022/01/08 13:11:05;;;;;;;10.48;5.55;;;;;;;-4.26;75.33;99849.91;4820784;29;20500;-68
2022/01/08 13:13:55;;;;;;;11.75;5.95;;;;;;;-4.28;75.54;99862.94;4806451;29;20063;-69
2022/01/08 13:16:22;;;;;;;10.95;5.30;;;;;;;-4.26;75.39;99875.94;4823195;29;20041;-68
2022/01/08 13:18:56;;;;;;;15.15;7.30;;;;;;;-4.25;74.92;99898.50;4822577;29;20057;-69
2022/01/08 13:21:24;;;;;;;8.25;5.43;;;;;;;-4.14;75.05;99897.53;4822651;29;20401;-68
2022/01/08 13:23:51;;;;;;;10.57;5.63;;;;;;;-4.06;74.90;99905.28;4806771;29;20056;-67
2022/01/08 13:26:27;;;;;;;12.02;6.55;;;;;;;-3.99;74.15;99891.34;4835290;29;20392;-67
2022/01/08 13:28:54;;;;;;;10.82;6.78;;;;;;;-3.94;74.53;99892.16;4861470;29;20100;-68
2022/01/08 13:31:19;;;;;;;13.90;7.57;;;;;;;-4.02;73.28;99883.56;4844303;29;20048;-68
2022/01/08 13:33:55;;;;;;;10.75;6.13;;;;;;;-3.94;74.24;99891.28;4876078;29;20143;-68
2022/01/08 13:36:20;;;;;;;13.80;6.78;;;;;;;-3.98;73.86;99881.78;4860656;29;20047;-67
2022/01/08 13:38:45;;;;;;;7.63;5.07;;;;;;;-3.86;74.90;99874.72;4860974;29;20135;-67
2022/01/08 13:41:15;;;;;;;13.75;7.10;;;;;;;-3.91;75.95;99873.03;4863022;29;20123;-68
2022/01/08 13:44:00;;;;;;;13.05;6.78;;;;;;;-3.99;74.85;99885.28;4861977;29;20052;-67
2022/01/08 13:46:28;;;;;;;16.02;6.63;;;;;;;-3.97;75.80;99894.81;4848361;29;20044;-69
2022/01/08 13:48:55;;;;;;;14.45;6.88;;;;;;;-4.06;74.83;99895.72;4879935;29;20479;-68
2022/01/08 13:51:22;;;;;;;13.80;7.47;;;;;;;-4.11;74.18;99896.66;4862870;29;20054;-68
2022/01/08 13:54:05;;;;;;;8.57;5.82;;;;;;;-3.90;75.24;99898.19;4879371;29;20055;-67
2022/01/08 13:56:31;;;;;;;9.27;6.43;;;;;;;-3.99;74.53;99900.91;4879135;29;20040;-69
2022/01/08 13:59:17;;;;;;;11.75;6.30;;;;;;;-3.90;75.43;99899.06;4879622;29;20056;-68
2022/01/08 14:01:49;;;;;;;12.10;6.93;;;;;;;-3.92;75.05;99893.00;4861996;29;20048;-68
2022/01/08 14:04:15;;;;;;;12.40;6.80;;;;;;;-3.95;75.25;99897.41;4862617;29;20084;-68
2022/01/08 14:06:43;;;;;;;14.68;7.35;;;;;;;-4.07;74.48;99893.16;4846348;29;20058;-68
2022/01/08 14:09:10;;;;;;;14.52;7.28;;;;;;;-4.15;74.28;99897.53;4879110;29;20048;-67
2022/01/08 14:11:35;;;;;;;15.50;6.10;;;;;;;-4.02;75.25;99892.22;4878837;29;20048;-67
2022/01/08 14:14:00;;;;;;;10.55;6.20;;;;;;;-3.92;75.44;99892.13;4862087;29;20158;-67
2022/01/08 14:16:33;;;;;;;18.35;6.15;;;;;;;-3.97;74.82;99899.16;4878676;29;20108;-67
2022/01/08 14:19:19;;;;;;;11.82;6.15;;;;;;;-3.98;74.68;99902.63;4879352;29;20048;-74
2022/01/08 14:21:55;;;;;;;11.07;6.20;;;;;;;-3.80;76.28;99902.44;4846515;29;20044;-75
2022/01/08 14:24:22;;;;;;;14.95;6.53;;;;;;;-3.95;74.86;99903.44;4879327;29;20056;-74
2022/01/08 14:27:10;;;;;;;11.45;6.72;;;;;;;-3.98;74.46;99902.63;4861987;29;20044;-74
2022/01/08 14:29:40;;;;;;;9.52;6.00;;;;;;;-3.91;74.73;99906.88;4862417;29;20447;-73
2022/01/08 14:32:08;;;;;;;13.25;7.63;;;;;;;-3.97;75.22;99912.16;4846954;29;20191;-72
2022/01/08 14:34:56;;;;;;;15.13;7.72;;;;;;;-3.85;74.81;99915.53;4865985;29;20067;-72
2022/01/08 14:37:33;;;;;;;11.68;6.43;;;;;;;-3.96;74.73;99916.50;4865917;29;20068;-71
2022/01/08 14:40:02;;;;;;;14.38;6.95;;;;;;;-4.05;74.91;99922.63;4882702;29;20064;-72
2022/01/08 14:42:29;;;;;;;12.50;5.90;;;;;;;-4.04;75.47;99920.00;4865324;29;20036;-72
2022/01/08 14:44:59;;;;;;;14.43;7.40;;;;;;;-3.93;76.09;99927.72;4883151;29;20032;-72
2022/01/08 14:47:36;;;;;;;15.15;7.25;;;;;;;-3.90;75.48;99929.44;4865863;29;20040;-71
2022/01/08 14:50:18;;;;;;;10.73;5.57;;;;;;;-3.81;76.50;99931.97;4883233;29;20044;-72
2022/01/08 14:52:46;;;;;;;11.90;6.45;;;;;;;-3.83;75.44;99926.78;4866278;29;20044;-73
2022/01/08 14:55:18;;;;;;;10.48;6.00;;;;;;;-3.84;75.71;99934.63;4882932;29;20051;-72
2022/01/08 14:57:47;;;;;;;11.02;6.85;;;;;;;-3.83;76.29;99926.78;4865161;29;20047;-72
2022/01/08 15:00:15;;;;;;;12.88;6.97;;;;;;;-3.96;75.98;99925.19;4882250;29;20162;-73
2022/01/08 15:02:41;;;;;;;14.30;6.93;;;;;;;-4.06;74.91;99919.16;4832581;29;20127;-73
2022/01/08 15:05:08;;;;;;;14.55;7.13;;;;;;;-3.95;76.30;99910.41;4881600;29;20537;-70
2022/01/08 15:07:35;;;;;;;17.75;9.93;;;;;;;-4.00;75.62;99914.78;4880870;29;20118;-73
2022/01/08 15:09:59;;;;;;;15.40;6.95;;;;;;;-3.96;75.47;99908.69;4881134;29;20051;-70
2022/01/08 15:12:26;;;;;;;16.35;7.50;;;;;;;-3.90;75.85;99908.63;4848901;29;20389;-73
2022/01/08 15:14:51;;;;;;;15.10;7.25;;;;;;;-3.89;75.39;99912.94;4881255;29;20058;-74
2022/01/08 15:17:16;;;;;;;11.68;6.07;;;;;;;-3.76;76.96;99920.66;4864687;29;20494;-72
2022/01/08 15:19:40;;;;;;;10.00;5.78;;;;;;;-3.87;76.65;99914.66;4881980;29;20056;-68
2022/01/08 15:22:11;;;;;;;10.02;5.47;;;;;;;-3.91;76.64;99919.91;4865971;29;20055;-65
2022/01/08 15:24:35;;;;;;;17.35;7.50;;;;;;;-3.98;75.88;99924.31;4849340;29;20593;-64
2022/01/08 15:27:01;;;;;;;11.38;7.38;;;;;;;-4.00;76.64;99918.25;4865206;29;20456;-64
2022/01/08 15:29:27;;;;;;;13.60;7.93;;;;;;;-3.97;76.59;99919.97;4881610;29;20617;-65
2022/01/08 15:31:54;;;;;;;13.07;6.10;;;;;;;-4.00;77.22;99912.19;4881272;29;20122;-65
2022/01/08 15:34:20;;;;;;;17.70;8.88;;;;;;;-3.94;77.09;99914.72;4866485;29;20051;-65
2022/01/08 15:36:44;;;;;;;15.13;8.45;;;;;;;-3.96;77.04;99896.53;4880257;29;20044;-71
2022/01/08 15:39:11;;;;;;;14.85;6.85;;;;;;;-3.92;76.67;99894.75;4849595;29;20112;-70
2022/01/08 15:41:36;;;;;;;9.60;6.03;;;;;;;-3.79;77.47;99896.34;4849307;29;20447;-70
2022/01/08 15:44:02;;;;;;;15.07;6.68;;;;;;;-3.72;76.85;99885.00;4864759;29;20134;-71
2022/01/08 15:46:28;;;;;;;11.95;7.28;;;;;;;-3.70;76.98;99878.03;4864737;29;20105;-73
2022/01/08 15:48:52;;;;;;;9.95;5.95;;;;;;;-3.62;78.01;99883.19;4864842;29;20071;-74
2022/01/08 15:51:19;;;;;;;15.45;6.75;;;;;;;-3.62;77.86;99884.03;4849946;29;20151;-72
2022/01/08 15:53:45;;;;;;;11.77;6.95;;;;;;;-3.73;78.30;99881.56;4881904;29;20047;-71
2022/01/08 15:56:12;;;;;;;13.30;4.20;;;;;;;-3.53;79.14;99889.16;4849784;29;20502;-71
2022/01/08 15:58:37;;;;;;;14.07;8.52;;;;;;;-3.64;79.34;99893.63;4864787;29;20532;-71
2022/01/08 16:01:04;;;;;;;15.60;8.52;;;;;;;-3.74;78.94;99895.44;4881606;29;20414;-71
2022/01/08 16:03:29;;;;;;;15.40;8.43;;;;;;;-3.86;78.17;99894.69;4881738;29;20055;-72
2022/01/08 16:05:53;;;;;;;14.73;6.85;;;;;;;-3.78;78.83;99892.88;4865864;29;20039;-70
2022/01/08 16:08:21;;;;;;;14.02;8.32;;;;;;;-3.78;79.25;99898.94;4869053;29;20044;-71
2022/01/08 16:10:46;;;;;;;19.60;9.38;;;;;;;-3.87;78.80;99893.84;4881351;29;20162;-67
2022/01/08 16:13:10;;;;;;;16.77;9.40;;;;;;;-3.86;79.02;99881.69;4882343;29;20469;-67
2022/01/08 16:15:35;;;;;;;15.95;7.63;;;;;;;-3.79;78.97;99880.72;4864656;29;20484;-70
2022/01/08 16:18:00;;;;;;;20.17;7.60;;;;;;;-3.77;79.90;99881.59;4881555;29;20087;-72
2022/01/08 16:20:25;;;;;;;14.43;7.32;;;;;;;-3.67;79.97;99878.88;4849019;29;20079;-74
2022/01/08 16:22:49;;;;;;;16.45;8.95;;;;;;;-3.86;79.49;99885.16;4848443;29;20046;-71
2022/01/08 16:25:15;;;;;;;15.02;9.00;;;;;;;-3.73;79.44;99888.50;4881315;29;20064;-69
2022/01/08 16:27:42;;;;;;;18.13;9.07;;;;;;;-3.80;79.48;99892.03;4848812;29;20036;-69
2022/01/08 16:30:08;;;;;;;20.05;11.05;;;;;;;-3.98;78.44;99898.28;4864678;29;20126;-69
2022/01/08 16:32:34;;;;;;;15.93;8.65;;;;;;;-3.82;78.59;99888.56;4864305;29;20561;-69
2022/01/08 16:34:58;;;;;;;19.73;9.57;;;;;;;-3.89;78.81;99885.16;4864115;29;20063;-69
2022/01/08 16:37:24;;;;;;;15.48;9.13;;;;;;;-3.91;77.83;99873.91;4864538;29;20043;-68
2022/01/08 16:39:49;;;;;;;13.60;7.40;;;;;;;-3.90;78.08;99878.22;4864312;29;20074;-68
2022/01/08 16:42:14;;;;;;;18.48;8.52;;;;;;;-3.81;78.34;99877.28;4864622;29;20067;-68
2022/01/08 16:44:40;;;;;;;20.92;9.55;;;;;;;-3.82;79.11;99875.53;4863730;29;20082;-68
2022/01/08 16:47:06;;;;;;;10.95;6.30;;;;;;;-3.81;78.63;99874.66;4881290;29;20040;-69
2022/01/08 16:49:31;;;;;;;14.13;7.75;;;;;;;-3.78;78.69;99872.03;4881202;29;20047;-71
2022/01/08 16:51:56;;;;;;;10.43;6.25;;;;;;;-3.71;79.28;99871.94;4881506;29;20043;-75
2022/01/08 16:54:20;;;;;;;9.05;5.75;;;;;;;-3.69;79.05;99862.38;4881506;29;20590;-73
2022/01/08 16:56:46;;;;;;;16.52;7.40;;;;;;;-3.85;78.30;99868.66;4863643;29;20040;-78
2022/01/08 16:59:11;;;;;;;12.93;7.32;;;;;;;-3.78;78.42;99869.44;4864649;29;20048;-71
2022/01/08 17:01:36;;;;;;;15.75;9.07;;;;;;;-3.97;77.24;99878.31;4882315;29;20044;-71
2022/01/08 17:04:01;;;;;;;14.23;8.32;;;;;;;-3.80;77.75;99884.22;4883752;29;20126;-73
2022/01/08 17:06:26;;;;;;;13.70;8.77;;;;;;;-3.83;76.75;99882.50;4864224;29;20170;-73
2022/01/08 17:08:51;;;;;;;10.65;6.38;;;;;;;-3.83;76.57;99889.44;4863759;29;20556;-69
2022/01/08 17:11:17;;;;;;;17.67;8.52;;;;;;;-3.75;77.35;99890.25;4880962;29;20390;-73
2022/01/08 17:13:44;;;;;;;13.98;6.03;;;;;;;-3.77;76.28;99890.25;4881015;29;20044;-71
2022/01/08 17:16:09;;;;;;;12.77;7.03;;;;;;;-3.83;77.42;99898.13;4848314;29;20036;-69
2022/01/08 17:18:34;;;;;;;15.40;7.18;;;;;;;-3.82;77.17;99883.34;4883539;29;20561;-71
2022/01/08 17:21:00;;;;;;;16.80;6.40;;;;;;;-3.81;76.66;99880.75;4880737;29;20098;-72
2022/01/08 17:23:25;;;;;;;14.70;6.90;;;;;;;-3.79;76.59;99872.91;4881304;29;20056;-70
2022/01/08 17:25:56;;;;;;;9.82;7.00;;;;;;;-3.77;76.59;99876.38;4862888;29;20056;-71
2022/01/08 17:28:25;;;;;;;10.55;5.93;;;;;;;-3.73;76.71;99872.88;4863285;29;20071;-72
2022/01/08 17:30:52;;;;;;;11.95;6.40;;;;;;;-3.65;77.26;99871.03;4864318;29;20135;-74
2022/01/08 17:33:20;;;;;;;10.32;5.10;;;;;;;-3.66;76.58;99870.19;4880147;29;20179;-72
2022/01/08 17:35:48;;;;;;;12.32;6.28;;;;;;;-3.68;76.04;99877.13;4880068;29;20040;-72
2022/01/08 17:38:13;;;;;;;18.00;7.88;;;;;;;-3.73;75.78;99880.69;4880191;29;20052;-74
2022/01/08 17:40:42;;;;;;;10.40;5.97;;;;;;;-3.67;76.27;99881.47;4881275;29;20048;-73
2022/01/08 17:43:07;;;;;;;10.02;5.60;;;;;;;-3.53;76.85;99878.72;4852811;29;20106;-69
2022/01/08 17:45:32;;;;;;;12.27;6.22;;;;;;;-3.42;78.33;99884.69;4887925;29;20047;-73
2022/01/08 17:48:00;;;;;;;11.85;5.38;;;;;;;-3.45;77.91;99897.75;4874425;29;20040;-73
2022/01/08 17:50:25;;;;;;;11.48;5.97;;;;;;;-3.57;77.12;99900.47;4858117;29;20095;-75
2022/01/08 17:52:50;;;;;;;13.65;7.15;;;;;;;-3.70;75.75;99894.53;4864942;29;20048;-73
2022/01/08 17:55:15;;;;;;;11.02;6.85;;;;;;;-3.79;75.76;99888.53;4863444;29;20051;-69
2022/01/08 17:57:42;;;;;;;10.45;5.75;;;;;;;-3.72;75.99;99901.47;4864259;29;20048;-74
2022/01/08 18:00:10;;;;;;;9.70;6.03;;;;;;;-3.58;77.38;99897.88;4863051;29;20103;-67
2022/01/08 18:02:35;;;;;;;10.48;6.55;;;;;;;-3.56;77.12;99897.00;4831837;29;20812;-69
2022/01/08 18:05:03;;;;;;;14.90;5.65;;;;;;;-3.60;76.49;99892.69;4862699;29;20506;-72
2022/01/08 18:07:29;;;;;;;8.02;5.22;;;;;;;-3.50;77.05;99901.28;4879745;29;20434;-72
2022/01/08 18:09:55;;;;;;;9.85;5.45;;;;;;;-3.47;76.99;99904.72;4880768;29;20039;-68
2022/01/08 18:12:20;;;;;;;17.30;4.45;;;;;;;-3.43;76.95;99900.34;4863145;29;20534;-71
2022/01/08 18:14:49;;;;;;;8.23;5.10;;;;;;;-3.40;77.92;99900.31;4879975;29;20447;-72
2022/01/08 18:17:15;;;;;;;7.60;4.53;;;;;;;-3.39;78.22;99904.66;4879526;29;20044;-73
2022/01/08 18:19:40;;;;;;;10.18;5.78;;;;;;;-3.59;77.45;99902.22;4880438;29;20056;-72
2022/01/08 18:22:05;;;;;;;12.32;5.65;;;;;;;-3.58;77.58;99898.75;4877704;29;20055;-71
2022/01/08 18:24:31;;;;;;;13.82;6.40;;;;;;;-3.80;76.14;99905.03;4825941;29;20049;-73